Time;durP1;ratioP1;P1;durP2;ratioP2;P2;SDS_P1;SDS_P2;PMS_P1;PMS_P2;Temp;Humidity;BMP_temperature;BMP_pressure;BME280_temperature;BME280_humidity;BME280_pressure;Samples;Min_cycle;Max_cycle;Signal;HPM_P1;HPM_P2
2023/05/21 00:03:04;;;;;;;;;;;12.50;99.90;;;;;;20908351;28;19919;-75
2023/05/21 00:13:05;;;;;;;;;;;12.40;99.90;;;;;;20903391;28;19913;-75
2023/05/21 00:23:06;;;;;;;;;;;12.40;99.90;;;;;;20894555;28;19915;-75
2023/05/21 00:33:09;;;;;;;;;;;12.40;99.90;;;;;;20896374;28;20008;-76
2023/05/21 00:43:09;;;;;;;;;;;12.40;99.90;;;;;;20881805;28;19909;-75
2023/05/21 00:53:11;;;;;;;;;;;12.70;99.90;;;;;;20885170;28;19931;-75
2023/05/21 01:03:12;;;;;;;;;;;12.70;99.90;;;;;;20888208;28;20390;-75
2023/05/21 01:13:15;;;;;;;;;;;12.50;99.90;;;;;;20893529;28;19942;-75
2023/05/21 01:23:16;;;;;;;;;;;12.60;99.90;;;;;;20870258;28;20381;-75
2023/05/21 01:33:16;;;;;;;;;;;12.50;99.90;;;;;;20907370;28;20368;-75
2023/05/21 01:43:18;;;;;;;;;;;12.50;99.90;;;;;;20918444;28;19974;-75
2023/05/21 01:53:19;;;;;;;;;;;12.40;99.90;;;;;;20874826;28;19916;-76
2023/05/21 02:03:20;;;;;;;;;;;12.50;99.90;;;;;;20927857;28;19920;-75
2023/05/21 02:13:21;;;;;;;;;;;12.50;99.90;;;;;;20891083;28;20350;-75
2023/05/21 02:23:22;;;;;;;;;;;12.60;99.90;;;;;;20902047;28;19917;-75
2023/05/21 02:33:23;;;;;;;;;;;12.50;99.90;;;;;;20886721;28;20282;-75
2023/05/21 02:43:23;;;;;;;;;;;12.50;99.90;;;;;;20900895;28;20092;-75
2023/05/21 02:53:25;;;;;;;;;;;12.40;99.90;;;;;;20904176;28;19912;-75
2023/05/21 03:03:26;;;;;;;;;;;12.40;99.90;;;;;;20901925;28;19916;-75
2023/05/21 03:13:27;;;;;;;;;;;12.30;99.90;;;;;;20877686;28;19916;-75
2023/05/21 03:23:28;;;;;;;;;;;12.20;99.90;;;;;;20892457;28;19913;-75
2023/05/21 03:33:28;;;;;;;;;;;12.10;99.90;;;;;;20901098;28;19919;-76
2023/05/21 03:43:29;;;;;;;;;;;12.00;99.90;;;;;;20891386;28;20002;-76
2023/05/21 03:53:32;;;;;;;;;;;11.90;99.90;;;;;;20888095;28;19991;-76
2023/05/21 04:03:34;;;;;;;;;;;11.90;99.90;;;;;;20894468;28;19916;-76
2023/05/21 04:13:35;;;;;;;;;;;11.90;99.90;;;;;;20889987;28;19928;-76
2023/05/21 04:23:37;;;;;;;;;;;11.80;99.90;;;;;;20858017;28;20354;-76
2023/05/21 04:33:44;;;;;;;;;;;11.80;99.90;;;;;;20878804;28;19928;-76
2023/05/21 04:43:46;;;;;;;;;;;12.00;99.90;;;;;;20869488;28;19913;-75
2023/05/21 04:53:48;;;;;;;;;;;12.10;99.90;;;;;;20886765;28;19917;-76
2023/05/21 05:03:49;;;;;;;;;;;12.30;99.90;;;;;;20898514;28;19908;-76
2023/05/21 05:13:50;;;;;;;;;;;12.40;99.90;;;;;;20907951;28;19965;-75
2023/05/21 05:23:51;;;;;;;;;;;12.60;99.90;;;;;;20917592;28;19916;-75
2023/05/21 05:33:54;;;;;;;;;;;12.80;99.90;;;;;;20898837;28;19956;-75
2023/05/21 05:43:57;;;;;;;;;;;13.00;99.90;;;;;;20897599;28;19908;-75
2023/05/21 05:54:01;;;;;;;;;;;12.90;99.90;;;;;;20897545;28;19916;-78
2023/05/21 06:04:02;;;;;;;;;;;12.90;99.90;;;;;;20884978;28;20388;-79
2023/05/21 06:14:04;;;;;;;;;;;13.30;99.90;;;;;;20888789;28;19920;-79
2023/05/21 06:24:05;;;;;;;;;;;13.30;99.90;;;;;;20887061;28;19961;-78
2023/05/21 06:34:05;;;;;;;;;;;13.50;99.90;;;;;;20866614;28;19912;-79
2023/05/21 06:44:07;;;;;;;;;;;13.80;99.90;;;;;;20893340;28;19913;-79
2023/05/21 06:54:30;;;;;;;;;;;14.40;99.90;;;;;;20878016;28;20310;-79
2023/05/21 07:04:33;;;;;;;;;;;14.80;99.90;;;;;;20907950;28;19974;-78
2023/05/21 07:14:34;;;;;;;;;;;15.00;99.90;;;;;;20920550;28;19927;-77
2023/05/21 07:24:35;;;;;;;;;;;15.30;99.90;;;;;;20889993;28;19915;-78
2023/05/21 07:34:36;;;;;;;;;;;15.70;99.90;;;;;;20892807;28;19988;-78
2023/05/21 07:44:38;;;;;;;;;;;16.40;99.90;;;;;;20902304;28;19916;-77
2023/05/21 07:54:39;;;;;;;;;;;16.80;99.90;;;;;;20882738;28;19931;-77
2023/05/21 08:04:41;;;;;;;;;;;17.00;99.90;;;;;;20880062;28;20017;-78
2023/05/21 08:14:44;;;;;;;;;;;18.10;99.90;;;;;;20892584;28;20051;-79
2023/05/21 08:24:47;;;;;;;;;;;18.70;99.90;;;;;;20870196;28;20367;-77
2023/05/21 08:34:48;;;;;;;;;;;18.90;99.90;;;;;;20883193;28;19948;-77
2023/05/21 08:45:21;;;;;;;;;;;19.60;99.90;;;;;;20887517;28;19908;-77
2023/05/21 08:55:25;;;;;;;;;;;20.70;99.90;;;;;;20907691;28;19912;-79
2023/05/21 09:05:28;;;;;;;;;;;20.30;99.90;;;;;;20917865;28;19927;-77
2023/05/21 09:15:29;;;;;;;;;;;21.80;99.90;;;;;;20924561;28;20011;-77
2023/05/21 09:25:31;;;;;;;;;;;22.50;99.90;;;;;;20888010;28;19915;-77
2023/05/21 09:35:45;;;;;;;;;;;22.00;99.90;;;;;;20903083;28;19913;-76
2023/05/21 09:45:52;;;;;;;;;;;22.20;99.90;;;;;;20890731;28;19909;-76
2023/05/21 09:55:56;;;;;;;;;;;22.40;99.90;;;;;;20901087;28;19924;-77
2023/05/21 10:05:58;;;;;;;;;;;22.40;99.90;;;;;;20923443;28;19912;-77
2023/05/21 10:16:01;;;;;;;;;;;22.40;99.90;;;;;;20921386;28;19957;-77
2023/05/21 10:26:02;;;;;;;;;;;22.30;99.90;;;;;;20884319;28;19961;-77
2023/05/21 10:36:03;;;;;;;;;;;23.20;99.90;;;;;;20890005;28;20342;-77
2023/05/21 10:46:19;;;;;;;;;;;23.90;99.90;;;;;;20908285;28;19916;-75
2023/05/21 10:56:38;;;;;;;;;;;24.80;99.90;;;;;;20892749;28;20356;-78
2023/05/21 11:06:39;;;;;;;;;;;23.80;99.90;;;;;;20914701;28;19935;-78
2023/05/21 11:16:44;;;;;;;;;;;24.20;99.90;;;;;;20906465;28;19912;-76
2023/05/21 11:26:47;;;;;;;;;;;24.10;99.90;;;;;;20908651;28;19913;-78
2023/05/21 11:36:48;;;;;;;;;;;24.50;99.90;;;;;;20888943;28;19913;-79
2023/05/21 11:46:50;;;;;;;;;;;25.60;99.90;;;;;;20909527;28;19920;-77
2023/05/21 11:56:50;;;;;;;;;;;25.10;99.90;;;;;;20923865;28;19954;-78
2023/05/21 12:06:51;;;;;;;;;;;25.20;99.90;;;;;;20925036;28;20004;-79
2023/05/21 12:16:52;;;;;;;;;;;26.60;99.90;;;;;;20936602;28;19943;-78
2023/05/21 12:26:54;;;;;;;;;;;25.50;99.90;;;;;;20943734;28;19908;-77
2023/05/21 12:36:54;;;;;;;;;;;24.80;99.90;;;;;;20965826;28;19973;-78
2023/05/21 12:46:55;;;;;;;;;;;25.60;99.90;;;;;;20971527;28;19919;-78
2023/05/21 12:56:56;;;;;;;;;;;26.90;99.90;;;;;;20971471;28;19913;-77
2023/05/21 13:06:56;;;;;;;;;;;26.70;99.90;;;;;;20907160;28;19959;-78
2023/05/21 13:16:57;;;;;;;;;;;27.80;99.90;;;;;;20889956;28;19912;-77
2023/05/21 13:26:58;;;;;;;;;;;27.20;99.90;;;;;;20905679;28;19908;-77
2023/05/21 13:36:58;;;;;;;;;;;27.10;99.90;;;;;;20917475;28;19912;-77
2023/05/21 13:46:59;;;;;;;;;;;26.90;99.90;;;;;;20923274;28;19959;-76
2023/05/21 13:57:00;;;;;;;;;;;27.40;99.90;;;;;;20916871;28;19939;-74
2023/05/21 14:07:01;;;;;;;;;;;27.60;99.90;;;;;;20914551;28;20004;-76
2023/05/21 14:17:02;;;;;;;;;;;26.70;99.90;;;;;;20934510;28;19913;-77
2023/05/21 14:27:03;;;;;;;;;;;27.10;99.90;;;;;;20930506;28;19915;-76
2023/05/21 14:37:04;;;;;;;;;;;27.30;99.70;;;;;;20906070;28;19917;-76
2023/05/21 14:47:04;;;;;;;;;;;27.30;98.40;;;;;;20901915;28;19915;-75
2023/05/21 14:57:05;;;;;;;;;;;28.20;96.60;;;;;;20905245;28;19948;-75
2023/05/21 15:07:06;;;;;;;;;;;29.40;95.80;;;;;;20900941;28;19955;-75
2023/05/21 15:17:08;;;;;;;;;;;27.80;98.20;;;;;;20846403;28;19924;-75
2023/05/21 15:27:08;;;;;;;;;;;27.80;97.20;;;;;;20900108;28;19963;-76
2023/05/21 15:37:09;;;;;;;;;;;27.40;98.80;;;;;;20901869;28;19913;-75
2023/05/21 15:47:10;;;;;;;;;;;27.00;98.70;;;;;;20901193;28;20360;-75
2023/05/21 15:57:10;;;;;;;;;;;25.90;99.90;;;;;;20889352;28;19913;-76
2023/05/21 16:07:11;;;;;;;;;;;25.50;99.90;;;;;;20887328;28;20003;-76
2023/05/21 16:17:12;;;;;;;;;;;25.40;99.90;;;;;;20885086;28;19912;-77
2023/05/21 16:27:12;;;;;;;;;;;25.10;99.90;;;;;;20890739;28;19959;-77
2023/05/21 16:37:13;;;;;;;;;;;25.00;99.90;;;;;;20870986;28;19919;-76
2023/05/21 16:47:14;;;;;;;;;;;24.90;99.90;;;;;;20896258;28;20006;-76
2023/05/21 16:57:14;;;;;;;;;;;24.10;99.90;;;;;;20862274;28;19917;-76
2023/05/21 17:07:15;;;;;;;;;;;23.50;99.90;;;;;;20880504;28;19959;-77
2023/05/21 17:17:16;;;;;;;;;;;22.50;99.90;;;;;;20906523;28;20369;-76
2023/05/21 17:27:17;;;;;;;;;;;22.10;99.90;;;;;;20899944;28;19920;-75
2023/05/21 17:37:18;;;;;;;;;;;21.80;99.90;;;;;;20900721;28;19917;-77
2023/05/21 17:47:18;;;;;;;;;;;21.70;99.90;;;;;;20894271;28;19967;-76
2023/05/21 17:57:19;;;;;;;;;;;21.70;99.90;;;;;;20901749;28;19963;-77
2023/05/21 18:07:21;;;;;;;;;;;21.60;99.90;;;;;;20908969;28;19920;-76
2023/05/21 18:17:21;;;;;;;;;;;21.80;99.90;;;;;;20897733;28;20020;-79
2023/05/21 18:27:22;;;;;;;;;;;21.70;99.90;;;;;;20907828;28;20260;-78
2023/05/21 18:37:22;;;;;;;;;;;21.50;99.90;;;;;;20916926;28;19913;-77
2023/05/21 18:47:23;;;;;;;;;;;21.20;99.90;;;;;;20895799;28;19947;-77
2023/05/21 18:57:24;;;;;;;;;;;20.80;99.90;;;;;;20912058;28;20284;-78
2023/05/21 19:07:24;;;;;;;;;;;19.50;99.90;;;;;;20888304;28;19920;-77
2023/05/21 19:17:25;;;;;;;;;;;18.90;99.90;;;;;;20923235;28;19982;-76
2023/05/21 19:27:28;;;;;;;;;;;18.30;99.90;;;;;;20921648;28;20344;-78
2023/05/21 19:37:28;;;;;;;;;;;18.20;99.90;;;;;;20920050;28;19998;-77
2023/05/21 19:47:30;;;;;;;;;;;18.10;99.90;;;;;;20902325;28;20476;-77
2023/05/21 19:57:31;;;;;;;;;;;17.90;99.90;;;;;;20914551;28;20337;-75
2023/05/21 20:07:32;;;;;;;;;;;17.30;99.90;;;;;;20915475;28;20051;-77
2023/05/21 20:17:37;;;;;;;;;;;16.80;99.90;;;;;;20915681;28;20019;-77
2023/05/21 20:27:38;;;;;;;;;;;16.70;99.90;;;;;;20895958;28;19999;-77
2023/05/21 20:37:38;;;;;;;;;;;16.50;99.90;;;;;;20913955;28;19919;-78
2023/05/21 20:47:40;;;;;;;;;;;16.30;99.90;;;;;;20912299;28;19915;-77
2023/05/21 20:57:40;;;;;;;;;;;15.90;99.90;;;;;;20912498;28;19912;-78
2023/05/21 21:07:41;;;;;;;;;;;16.00;99.90;;;;;;20905567;28;19995;-77
2023/05/21 21:17:42;;;;;;;;;;;15.80;99.90;;;;;;20872591;28;19920;-77
2023/05/21 21:27:43;;;;;;;;;;;15.60;99.90;;;;;;20912012;28;19909;-77
2023/05/21 21:37:43;;;;;;;;;;;15.60;99.90;;;;;;20911486;28;20367;-77
2023/05/21 21:47:44;;;;;;;;;;;15.90;99.90;;;;;;20951407;28;19913;-78
2023/05/21 21:57:45;;;;;;;;;;;15.90;99.90;;;;;;20946686;28;19999;-76
2023/05/21 22:07:45;;;;;;;;;;;15.80;99.90;;;;;;20904055;28;19972;-77
2023/05/21 22:17:47;;;;;;;;;;;16.10;99.90;;;;;;20904942;28;19967;-77
2023/05/21 22:27:48;;;;;;;;;;;16.20;99.90;;;;;;20925538;28;19912;-77
2023/05/21 22:37:48;;;;;;;;;;;16.20;99.90;;;;;;20952251;28;19919;-76
2023/05/21 22:47:50;;;;;;;;;;;16.10;99.90;;;;;;20939584;28;19909;-75
2023/05/21 22:57:51;;;;;;;;;;;16.10;99.90;;;;;;20933641;28;20295;-75
2023/05/21 23:07:51;;;;;;;;;;;16.00;99.90;;;;;;20895830;28;19912;-75
2023/05/21 23:17:52;;;;;;;;;;;16.10;99.90;;;;;;20907811;28;19956;-75
2023/05/21 23:27:53;;;;;;;;;;;15.90;99.90;;;;;;20894618;28;19931;-75
2023/05/21 23:37:54;;;;;;;;;;;15.70;99.90;;;;;;20911750;28;19985;-75
2023/05/21 23:47:54;;;;;;;;;;;15.60;99.90;;;;;;20911080;28;20440;-76
2023/05/21 23:57:55;;;;;;;;;;;15.70;99.90;;;;;;20910073;28;20022;-75
